sensor_id;sensor_type;location;lat;lon;timestamp;temperature;humidity
33837;DHT22;20140;49.356;8.812;2022-10-17T00:01:40;12.80;99.90
33837;DHT22;20140;49.356;8.812;2022-10-17T00:04:06;12.80;99.90
33837;DHT22;20140;49.356;8.812;2022-10-17T00:06:31;12.80;99.90
33837;DHT22;20140;49.356;8.812;2022-10-17T00:08:57;12.80;99.90
33837;DHT22;20140;49.356;8.812;2022-10-17T00:11:23;12.70;99.90
33837;DHT22;20140;49.356;8.812;2022-10-17T00:13:50;12.70;99.90
33837;DHT22;20140;49.356;8.812;2022-10-17T00:16:25;12.60;99.90
33837;DHT22;20140;49.356;8.812;2022-10-17T00:18:52;12.60;99.90
33837;DHT22;20140;49.356;8.812;2022-10-17T00:21:18;12.50;99.90
33837;DHT22;20140;49.356;8.812;2022-10-17T00:23:45;12.50;99.90
33837;DHT22;20140;49.356;8.812;2022-10-17T00:26:11;12.50;99.90
33837;DHT22;20140;49.356;8.812;2022-10-17T00:28:37;12.40;99.90
33837;DHT22;20140;49.356;8.812;2022-10-17T00:31:05;12.50;99.90
33837;DHT22;20140;49.356;8.812;2022-10-17T00:33:32;12.60;99.90
33837;DHT22;20140;49.356;8.812;2022-10-17T00:36:05;12.60;99.90
33837;DHT22;20140;49.356;8.812;2022-10-17T00:38:31;12.40;99.90
33837;DHT22;20140;49.356;8.812;2022-10-17T00:40:57;12.30;99.90
33837;DHT22;20140;49.356;8.812;2022-10-17T00:43:22;12.20;99.90
33837;DHT22;20140;49.356;8.812;2022-10-17T00:45:48;12.30;99.90
33837;DHT22;20140;49.356;8.812;2022-10-17T00:48:14;12.30;99.90
33837;DHT22;20140;49.356;8.812;2022-10-17T00:50:43;12.30;99.90
33837;DHT22;20140;49.356;8.812;2022-10-17T00:53:10;12.30;99.90
33837;DHT22;20140;49.356;8.812;2022-10-17T00:55:46;12.20;99.90
33837;DHT22;20140;49.356;8.812;2022-10-17T00:58:12;12.10;99.90
33837;DHT22;20140;49.356;8.812;2022-10-17T01:00:39;12.20;99.90
33837;DHT22;20140;49.356;8.812;2022-10-17T01:03:05;12.30;99.90
33837;DHT22;20140;49.356;8.812;2022-10-17T01:05:30;12.30;99.90
33837;DHT22;20140;49.356;8.812;2022-10-17T01:07:56;12.30;99.90
33837;DHT22;20140;49.356;8.812;2022-10-17T01:10:29;12.30;99.90
33837;DHT22;20140;49.356;8.812;2022-10-17T01:13:21;12.40;99.90
33837;DHT22;20140;49.356;8.812;2022-10-17T01:18:40;12.30;99.90
33837;DHT22;20140;49.356;8.812;2022-10-17T01:24:02;12.30;99.90
33837;DHT22;20140;49.356;8.812;2022-10-17T01:32:16;12.00;99.90
33837;DHT22;20140;49.356;8.812;2022-10-17T01:43:15;12.00;99.90
33837;DHT22;20140;49.356;8.812;2022-10-17T01:45:48;12.00;99.90
33837;DHT22;20140;49.356;8.812;2022-10-17T01:48:36;12.00;99.90
33837;DHT22;20140;49.356;8.812;2022-10-17T01:51:10;12.00;99.90
33837;DHT22;20140;49.356;8.812;2022-10-17T01:53:42;11.80;99.90
33837;DHT22;20140;49.356;8.812;2022-10-17T01:56:13;11.80;99.90
33837;DHT22;20140;49.356;8.812;2022-10-17T01:58:43;11.80;99.90
33837;DHT22;20140;49.356;8.812;2022-10-17T02:01:11;11.90;99.90
33837;DHT22;20140;49.356;8.812;2022-10-17T02:03:38;11.80;99.90
33837;DHT22;20140;49.356;8.812;2022-10-17T02:06:06;11.80;99.90
33837;DHT22;20140;49.356;8.812;2022-10-17T02:08:44;11.70;99.90
33837;DHT22;20140;49.356;8.812;2022-10-17T02:11:22;11.60;99.90
33837;DHT22;20140;49.356;8.812;2022-10-17T02:16:35;11.70;99.90
33837;DHT22;20140;49.356;8.812;2022-10-17T02:22:26;11.50;99.90
33837;DHT22;20140;49.356;8.812;2022-10-17T02:30:40;11.80;99.90
33837;DHT22;20140;49.356;8.812;2022-10-17T02:35:51;11.80;99.90
33837;DHT22;20140;49.356;8.812;2022-10-17T02:38:19;11.80;99.90
33837;DHT22;20140;49.356;8.812;2022-10-17T02:40:49;11.80;99.90
33837;DHT22;20140;49.356;8.812;2022-10-17T02:43:15;11.80;99.90
33837;DHT22;20140;49.356;8.812;2022-10-17T02:45:41;11.80;99.90
33837;DHT22;20140;49.356;8.812;2022-10-17T02:48:24;11.80;99.90
33837;DHT22;20140;49.356;8.812;2022-10-17T02:56:15;11.80;99.90
33837;DHT22;20140;49.356;8.812;2022-10-17T02:58:42;11.70;99.90
33837;DHT22;20140;49.356;8.812;2022-10-17T03:01:11;11.70;99.90
33837;DHT22;20140;49.356;8.812;2022-10-17T03:03:37;11.50;99.90
33837;DHT22;20140;49.356;8.812;2022-10-17T03:06:03;11.60;99.90
33837;DHT22;20140;49.356;8.812;2022-10-17T03:08:29;11.70;99.90
33837;DHT22;20140;49.356;8.812;2022-10-17T03:10:54;11.60;99.90
33837;DHT22;20140;49.356;8.812;2022-10-17T03:13:20;11.50;99.90
33837;DHT22;20140;49.356;8.812;2022-10-17T03:15:45;11.40;99.90
33837;DHT22;20140;49.356;8.812;2022-10-17T03:18:11;11.20;99.90
33837;DHT22;20140;49.356;8.812;2022-10-17T03:20:37;11.10;99.90
33837;DHT22;20140;49.356;8.812;2022-10-17T03:23:02;11.10;99.90
33837;DHT22;20140;49.356;8.812;2022-10-17T03:25:28;11.20;99.90
33837;DHT22;20140;49.356;8.812;2022-10-17T03:27:56;11.10;99.90
33837;DHT22;20140;49.356;8.812;2022-10-17T03:30:21;11.00;99.90
33837;DHT22;20140;49.356;8.812;2022-10-17T03:32:47;11.00;99.90
33837;DHT22;20140;49.356;8.812;2022-10-17T03:35:12;11.00;99.90
33837;DHT22;20140;49.356;8.812;2022-10-17T03:37:38;11.00;99.90
33837;DHT22;20140;49.356;8.812;2022-10-17T03:40:04;11.00;99.90
33837;DHT22;20140;49.356;8.812;2022-10-17T03:42:30;11.10;99.90
33837;DHT22;20140;49.356;8.812;2022-10-17T03:44:56;11.10;99.90
33837;DHT22;20140;49.356;8.812;2022-10-17T03:47:21;11.10;99.90
33837;DHT22;20140;49.356;8.812;2022-10-17T03:49:47;11.00;99.90
33837;DHT22;20140;49.356;8.812;2022-10-17T03:52:12;10.90;99.90
33837;DHT22;20140;49.356;8.812;2022-10-17T03:54:39;10.80;99.90
33837;DHT22;20140;49.356;8.812;2022-10-17T03:57:04;10.80;99.90
33837;DHT22;20140;49.356;8.812;2022-10-17T03:59:30;10.80;99.90
33837;DHT22;20140;49.356;8.812;2022-10-17T04:01:55;10.90;99.90
33837;DHT22;20140;49.356;8.812;2022-10-17T04:04:21;11.00;99.90
33837;DHT22;20140;49.356;8.812;2022-10-17T04:06:47;11.00;99.90
33837;DHT22;20140;49.356;8.812;2022-10-17T04:09:12;10.60;99.90
33837;DHT22;20140;49.356;8.812;2022-10-17T04:11:38;10.60;99.90
33837;DHT22;20140;49.356;8.812;2022-10-17T04:14:04;10.60;99.90
33837;DHT22;20140;49.356;8.812;2022-10-17T04:16:29;10.60;99.90
33837;DHT22;20140;49.356;8.812;2022-10-17T04:18:57;10.60;99.90
33837;DHT22;20140;49.356;8.812;2022-10-17T04:21:24;10.50;99.90
33837;DHT22;20140;49.356;8.812;2022-10-17T04:23:58;10.60;99.90
33837;DHT22;20140;49.356;8.812;2022-10-17T04:26:24;10.70;99.90
33837;DHT22;20140;49.356;8.812;2022-10-17T04:28:50;10.70;99.90
33837;DHT22;20140;49.356;8.812;2022-10-17T04:31:15;10.80;99.90
33837;DHT22;20140;49.356;8.812;2022-10-17T04:33:41;10.90;99.90
33837;DHT22;20140;49.356;8.812;2022-10-17T04:36:11;10.90;99.90
33837;DHT22;20140;49.356;8.812;2022-10-17T04:38:36;10.90;99.90
33837;DHT22;20140;49.356;8.812;2022-10-17T04:41:05;10.90;99.90
33837;DHT22;20140;49.356;8.812;2022-10-17T04:43:35;11.00;99.90
33837;DHT22;20140;49.356;8.812;2022-10-17T04:46:03;11.10;99.90
33837;DHT22;20140;49.356;8.812;2022-10-17T04:48:29;11.10;99.90
33837;DHT22;20140;49.356;8.812;2022-10-17T04:50:59;11.00;99.90
33837;DHT22;20140;49.356;8.812;2022-10-17T04:53:26;11.10;99.90
33837;DHT22;20140;49.356;8.812;2022-10-17T04:55:52;11.20;99.90
33837;DHT22;20140;49.356;8.812;2022-10-17T04:58:18;11.20;99.90
33837;DHT22;20140;49.356;8.812;2022-10-17T05:00:44;11.20;99.90
33837;DHT22;20140;49.356;8.812;2022-10-17T05:03:09;11.20;99.90
33837;DHT22;20140;49.356;8.812;2022-10-17T05:05:39;11.20;99.90
33837;DHT22;20140;49.356;8.812;2022-10-17T05:08:05;11.20;99.90
33837;DHT22;20140;49.356;8.812;2022-10-17T05:10:42;11.10;99.90
33837;DHT22;20140;49.356;8.812;2022-10-17T05:13:09;11.00;99.90
33837;DHT22;20140;49.356;8.812;2022-10-17T05:15:35;10.80;99.90
33837;DHT22;20140;49.356;8.812;2022-10-17T05:18:01;10.70;99.90
33837;DHT22;20140;49.356;8.812;2022-10-17T05:20:27;10.70;99.90
33837;DHT22;20140;49.356;8.812;2022-10-17T05:22:53;10.70;99.90
33837;DHT22;20140;49.356;8.812;2022-10-17T05:25:19;10.90;99.90
33837;DHT22;20140;49.356;8.812;2022-10-17T05:27:44;10.70;99.90
33837;DHT22;20140;49.356;8.812;2022-10-17T05:30:10;10.60;99.90
33837;DHT22;20140;49.356;8.812;2022-10-17T05:32:36;10.60;99.90
33837;DHT22;20140;49.356;8.812;2022-10-17T05:35:02;10.60;99.90
33837;DHT22;20140;49.356;8.812;2022-10-17T05:37:29;10.70;99.90
33837;DHT22;20140;49.356;8.812;2022-10-17T05:39:55;10.80;99.90
33837;DHT22;20140;49.356;8.812;2022-10-17T05:42:21;10.90;99.90
33837;DHT22;20140;49.356;8.812;2022-10-17T05:44:47;10.90;99.90
33837;DHT22;20140;49.356;8.812;2022-10-17T05:47:12;11.10;99.90
33837;DHT22;20140;49.356;8.812;2022-10-17T05:49:38;11.10;99.90
33837;DHT22;20140;49.356;8.812;2022-10-17T05:52:04;10.90;99.90
33837;DHT22;20140;49.356;8.812;2022-10-17T05:54:29;10.90;99.90
33837;DHT22;20140;49.356;8.812;2022-10-17T05:56:55;10.80;99.90
33837;DHT22;20140;49.356;8.812;2022-10-17T05:59:22;10.80;99.90
33837;DHT22;20140;49.356;8.812;2022-10-17T06:01:48;10.70;99.90
33837;DHT22;20140;49.356;8.812;2022-10-17T06:04:14;10.60;99.90
33837;DHT22;20140;49.356;8.812;2022-10-17T06:06:40;10.60;99.90
33837;DHT22;20140;49.356;8.812;2022-10-17T06:09:06;10.60;99.90
33837;DHT22;20140;49.356;8.812;2022-10-17T06:11:32;10.50;99.90
33837;DHT22;20140;49.356;8.812;2022-10-17T06:13:58;10.40;99.90
33837;DHT22;20140;49.356;8.812;2022-10-17T06:16:23;10.30;99.90
33837;DHT22;20140;49.356;8.812;2022-10-17T06:18:49;10.40;99.90
33837;DHT22;20140;49.356;8.812;2022-10-17T06:21:18;10.50;99.90
33837;DHT22;20140;49.356;8.812;2022-10-17T06:23:43;10.50;99.90
33837;DHT22;20140;49.356;8.812;2022-10-17T06:26:09;10.60;99.90
33837;DHT22;20140;49.356;8.812;2022-10-17T06:28:35;10.50;99.90
33837;DHT22;20140;49.356;8.812;2022-10-17T06:31:09;10.60;99.90
33837;DHT22;20140;49.356;8.812;2022-10-17T06:33:35;10.50;99.90
33837;DHT22;20140;49.356;8.812;2022-10-17T06:36:01;10.50;99.90
33837;DHT22;20140;49.356;8.812;2022-10-17T06:38:27;10.60;99.90
33837;DHT22;20140;49.356;8.812;2022-10-17T06:40:53;10.60;99.90
33837;DHT22;20140;49.356;8.812;2022-10-17T06:43:21;10.70;99.90
33837;DHT22;20140;49.356;8.812;2022-10-17T06:45:47;10.70;99.90
33837;DHT22;20140;49.356;8.812;2022-10-17T06:48:13;10.80;99.90
33837;DHT22;20140;49.356;8.812;2022-10-17T06:50:38;10.90;99.90
33837;DHT22;20140;49.356;8.812;2022-10-17T06:53:04;11.00;99.90
33837;DHT22;20140;49.356;8.812;2022-10-17T06:55:31;11.20;99.90
33837;DHT22;20140;49.356;8.812;2022-10-17T06:57:57;11.30;99.90
33837;DHT22;20140;49.356;8.812;2022-10-17T07:00:22;11.40;99.90
33837;DHT22;20140;49.356;8.812;2022-10-17T07:02:48;11.50;99.90
33837;DHT22;20140;49.356;8.812;2022-10-17T07:05:14;11.60;99.90
33837;DHT22;20140;49.356;8.812;2022-10-17T07:07:40;11.70;99.90
33837;DHT22;20140;49.356;8.812;2022-10-17T07:10:05;11.70;99.90
33837;DHT22;20140;49.356;8.812;2022-10-17T07:12:34;11.80;99.90
33837;DHT22;20140;49.356;8.812;2022-10-17T07:15:00;11.80;99.90
33837;DHT22;20140;49.356;8.812;2022-10-17T07:17:25;11.70;99.90
33837;DHT22;20140;49.356;8.812;2022-10-17T07:19:51;11.60;99.90
33837;DHT22;20140;49.356;8.812;2022-10-17T07:22:16;11.90;99.90
33837;DHT22;20140;49.356;8.812;2022-10-17T07:24:42;11.90;99.90
33837;DHT22;20140;49.356;8.812;2022-10-17T07:27:07;12.00;99.90
33837;DHT22;20140;49.356;8.812;2022-10-17T07:29:33;12.20;99.90
33837;DHT22;20140;49.356;8.812;2022-10-17T07:31:58;12.30;99.90
33837;DHT22;20140;49.356;8.812;2022-10-17T07:34:24;12.40;99.90
33837;DHT22;20140;49.356;8.812;2022-10-17T07:36:52;12.30;99.90
33837;DHT22;20140;49.356;8.812;2022-10-17T07:39:18;12.50;99.90
33837;DHT22;20140;49.356;8.812;2022-10-17T07:41:43;12.50;99.90
33837;DHT22;20140;49.356;8.812;2022-10-17T07:44:09;12.50;99.90
33837;DHT22;20140;49.356;8.812;2022-10-17T07:46:34;12.60;99.90
33837;DHT22;20140;49.356;8.812;2022-10-17T07:49:00;12.80;99.90
33837;DHT22;20140;49.356;8.812;2022-10-17T07:51:25;13.00;99.90
33837;DHT22;20140;49.356;8.812;2022-10-17T07:53:52;13.10;99.90
33837;DHT22;20140;49.356;8.812;2022-10-17T07:56:17;13.20;99.90
33837;DHT22;20140;49.356;8.812;2022-10-17T07:58:43;13.20;99.90
33837;DHT22;20140;49.356;8.812;2022-10-17T08:01:10;13.20;99.90
33837;DHT22;20140;49.356;8.812;2022-10-17T08:03:39;13.10;99.90
33837;DHT22;20140;49.356;8.812;2022-10-17T08:06:05;13.20;99.90
33837;DHT22;20140;49.356;8.812;2022-10-17T08:08:30;13.40;99.90
33837;DHT22;20140;49.356;8.812;2022-10-17T08:11:02;13.60;99.90
33837;DHT22;20140;49.356;8.812;2022-10-17T08:13:27;13.60;99.90
33837;DHT22;20140;49.356;8.812;2022-10-17T08:15:53;13.80;99.90
33837;DHT22;20140;49.356;8.812;2022-10-17T08:18:18;13.90;99.90
33837;DHT22;20140;49.356;8.812;2022-10-17T08:20:44;14.00;99.90
33837;DHT22;20140;49.356;8.812;2022-10-17T08:23:10;14.10;99.90
33837;DHT22;20140;49.356;8.812;2022-10-17T08:25:38;14.20;99.90
33837;DHT22;20140;49.356;8.812;2022-10-17T08:28:04;14.40;99.90
33837;DHT22;20140;49.356;8.812;2022-10-17T08:30:30;14.50;99.90
33837;DHT22;20140;49.356;8.812;2022-10-17T08:32:56;14.60;99.90
33837;DHT22;20140;49.356;8.812;2022-10-17T08:35:21;14.70;99.90
33837;DHT22;20140;49.356;8.812;2022-10-17T08:37:48;14.80;99.90
33837;DHT22;20140;49.356;8.812;2022-10-17T08:40:21;14.90;99.90
33837;DHT22;20140;49.356;8.812;2022-10-17T08:43:05;15.00;99.90
33837;DHT22;20140;49.356;8.812;2022-10-17T08:45:35;15.00;99.90
33837;DHT22;20140;49.356;8.812;2022-10-17T08:48:07;15.20;99.90
33837;DHT22;20140;49.356;8.812;2022-10-17T08:50:38;15.30;99.90
33837;DHT22;20140;49.356;8.812;2022-10-17T08:53:21;15.30;99.90
33837;DHT22;20140;49.356;8.812;2022-10-17T08:55:51;15.30;99.90
33837;DHT22;20140;49.356;8.812;2022-10-17T08:58:28;15.60;99.90
33837;DHT22;20140;49.356;8.812;2022-10-17T09:03:39;16.00;99.90
33837;DHT22;20140;49.356;8.812;2022-10-17T09:08:58;16.30;99.90
33837;DHT22;20140;49.356;8.812;2022-10-17T09:14:32;16.50;99.90
33837;DHT22;20140;49.356;8.812;2022-10-17T09:19:43;16.60;99.90
33837;DHT22;20140;49.356;8.812;2022-10-17T09:22:17;16.60;99.90
33837;DHT22;20140;49.356;8.812;2022-10-17T09:24:54;16.80;99.90
33837;DHT22;20140;49.356;8.812;2022-10-17T09:27:31;16.90;99.90
33837;DHT22;20140;49.356;8.812;2022-10-17T09:30:37;17.10;99.90
33837;DHT22;20140;49.356;8.812;2022-10-17T09:33:12;17.10;99.90
33837;DHT22;20140;49.356;8.812;2022-10-17T09:35:39;17.20;99.90
33837;DHT22;20140;49.356;8.812;2022-10-17T09:38:16;17.30;99.90
33837;DHT22;20140;49.356;8.812;2022-10-17T09:40:43;17.50;99.90
33837;DHT22;20140;49.356;8.812;2022-10-17T09:43:12;17.70;99.90
33837;DHT22;20140;49.356;8.812;2022-10-17T09:45:45;17.80;99.90
33837;DHT22;20140;49.356;8.812;2022-10-17T09:50:44;17.70;99.90
33837;DHT22;20140;49.356;8.812;2022-10-17T09:53:19;17.70;99.90
33837;DHT22;20140;49.356;8.812;2022-10-17T09:55:52;17.80;99.90
33837;DHT22;20140;49.356;8.812;2022-10-17T09:58:20;17.90;99.90
33837;DHT22;20140;49.356;8.812;2022-10-17T10:00:46;17.80;99.90
33837;DHT22;20140;49.356;8.812;2022-10-17T10:03:23;17.70;99.90
33837;DHT22;20140;49.356;8.812;2022-10-17T10:08:46;17.90;99.90
33837;DHT22;20140;49.356;8.812;2022-10-17T10:11:13;18.00;99.90
33837;DHT22;20140;49.356;8.812;2022-10-17T10:13:40;18.20;99.90
33837;DHT22;20140;49.356;8.812;2022-10-17T10:16:22;18.40;99.90
33837;DHT22;20140;49.356;8.812;2022-10-17T10:18:54;18.30;99.90
33837;DHT22;20140;49.356;8.812;2022-10-17T10:21:20;18.30;99.90
33837;DHT22;20140;49.356;8.812;2022-10-17T10:24:09;18.30;99.90
33837;DHT22;20140;49.356;8.812;2022-10-17T10:29:18;18.60;99.90
33837;DHT22;20140;49.356;8.812;2022-10-17T10:31:45;18.60;99.90
33837;DHT22;20140;49.356;8.812;2022-10-17T10:34:18;18.70;99.90
33837;DHT22;20140;49.356;8.812;2022-10-17T10:39:32;19.10;99.90
33837;DHT22;20140;49.356;8.812;2022-10-17T10:42:01;19.10;99.90
33837;DHT22;20140;49.356;8.812;2022-10-17T10:44:29;19.10;99.90
33837;DHT22;20140;49.356;8.812;2022-10-17T10:47:34;19.40;99.90
33837;DHT22;20140;49.356;8.812;2022-10-17T10:50:23;19.30;99.90
33837;DHT22;20140;49.356;8.812;2022-10-17T10:55:41;19.50;99.90
33837;DHT22;20140;49.356;8.812;2022-10-17T10:58:48;19.50;99.90
33837;DHT22;20140;49.356;8.812;2022-10-17T11:06:26;19.70;99.90
33837;DHT22;20140;49.356;8.812;2022-10-17T11:11:40;20.00;99.90
33837;DHT22;20140;49.356;8.812;2022-10-17T11:14:31;20.10;99.90
33837;DHT22;20140;49.356;8.812;2022-10-17T11:17:20;20.20;99.90
33837;DHT22;20140;49.356;8.812;2022-10-17T11:22:55;20.50;99.90
33837;DHT22;20140;49.356;8.812;2022-10-17T11:25:37;20.60;99.90
33837;DHT22;20140;49.356;8.812;2022-10-17T11:28:15;20.50;99.90
33837;DHT22;20140;49.356;8.812;2022-10-17T11:30:45;20.80;99.90
33837;DHT22;20140;49.356;8.812;2022-10-17T11:33:28;21.10;99.90
33837;DHT22;20140;49.356;8.812;2022-10-17T11:36:00;21.10;99.90
33837;DHT22;20140;49.356;8.812;2022-10-17T11:41:51;21.20;99.90
33837;DHT22;20140;49.356;8.812;2022-10-17T11:44:38;21.30;99.90
33837;DHT22;20140;49.356;8.812;2022-10-17T11:47:06;21.20;99.90
33837;DHT22;20140;49.356;8.812;2022-10-17T11:49:49;21.20;99.90
33837;DHT22;20140;49.356;8.812;2022-10-17T11:52:42;21.50;99.90
33837;DHT22;20140;49.356;8.812;2022-10-17T11:55:20;21.60;99.90
33837;DHT22;20140;49.356;8.812;2022-10-17T11:57:51;21.80;99.90
33837;DHT22;20140;49.356;8.812;2022-10-17T12:00:42;22.10;99.90
33837;DHT22;20140;49.356;8.812;2022-10-17T12:03:39;22.10;99.90
33837;DHT22;20140;49.356;8.812;2022-10-17T12:14:34;23.70;99.90
33837;DHT22;20140;49.356;8.812;2022-10-17T12:17:01;24.60;99.90
33837;DHT22;20140;49.356;8.812;2022-10-17T12:19:28;25.10;99.90
33837;DHT22;20140;49.356;8.812;2022-10-17T12:24:51;25.70;99.90
33837;DHT22;20140;49.356;8.812;2022-10-17T12:27:21;25.80;99.90
33837;DHT22;20140;49.356;8.812;2022-10-17T12:29:47;25.60;99.90
33837;DHT22;20140;49.356;8.812;2022-10-17T12:32:14;25.90;99.90
33837;DHT22;20140;49.356;8.812;2022-10-17T12:34:50;26.30;99.90
33837;DHT22;20140;49.356;8.812;2022-10-17T12:43:31;25.30;99.90
33837;DHT22;20140;49.356;8.812;2022-10-17T12:45:59;25.40;99.90
33837;DHT22;20140;49.356;8.812;2022-10-17T12:56:13;26.40;99.90
33837;DHT22;20140;49.356;8.812;2022-10-17T12:58:47;26.60;99.90
33837;DHT22;20140;49.356;8.812;2022-10-17T13:01:32;27.10;99.90
33837;DHT22;20140;49.356;8.812;2022-10-17T13:04:01;27.50;99.90
33837;DHT22;20140;49.356;8.812;2022-10-17T13:06:31;27.30;99.90
33837;DHT22;20140;49.356;8.812;2022-10-17T13:09:22;27.50;99.90
33837;DHT22;20140;49.356;8.812;2022-10-17T13:11:49;27.60;99.90
33837;DHT22;20140;49.356;8.812;2022-10-17T13:14:18;27.40;99.90
33837;DHT22;20140;49.356;8.812;2022-10-17T13:17:02;26.70;99.90
33837;DHT22;20140;49.356;8.812;2022-10-17T13:19:30;26.80;99.90
33837;DHT22;20140;49.356;8.812;2022-10-17T13:21:59;26.80;99.90
33837;DHT22;20140;49.356;8.812;2022-10-17T13:24:38;27.00;99.90
33837;DHT22;20140;49.356;8.812;2022-10-17T13:27:06;27.20;99.90
33837;DHT22;20140;49.356;8.812;2022-10-17T13:29:32;27.20;99.90
33837;DHT22;20140;49.356;8.812;2022-10-17T13:32:00;27.70;99.90
33837;DHT22;20140;49.356;8.812;2022-10-17T13:34:28;27.80;99.90
33837;DHT22;20140;49.356;8.812;2022-10-17T13:37:00;28.10;99.90
33837;DHT22;20140;49.356;8.812;2022-10-17T13:39:28;27.90;99.90
33837;DHT22;20140;49.356;8.812;2022-10-17T13:41:55;27.60;99.90
33837;DHT22;20140;49.356;8.812;2022-10-17T13:44:27;27.70;99.90
33837;DHT22;20140;49.356;8.812;2022-10-17T13:46:53;27.90;99.30
33837;DHT22;20140;49.356;8.812;2022-10-17T13:49:32;28.10;99.60
33837;DHT22;20140;49.356;8.812;2022-10-17T13:51:59;28.60;99.50
33837;DHT22;20140;49.356;8.812;2022-10-17T13:57:01;27.70;99.90
33837;DHT22;20140;49.356;8.812;2022-10-17T13:59:38;27.50;99.50
33837;DHT22;20140;49.356;8.812;2022-10-17T14:02:05;27.60;99.90
33837;DHT22;20140;49.356;8.812;2022-10-17T14:04:37;27.50;99.90
33837;DHT22;20140;49.356;8.812;2022-10-17T14:07:03;28.30;99.90
33837;DHT22;20140;49.356;8.812;2022-10-17T14:09:30;28.60;99.10
33837;DHT22;20140;49.356;8.812;2022-10-17T14:12:18;28.60;99.90
33837;DHT22;20140;49.356;8.812;2022-10-17T14:14:50;28.90;99.70
33837;DHT22;20140;49.356;8.812;2022-10-17T14:17:22;29.10;99.40
33837;DHT22;20140;49.356;8.812;2022-10-17T14:19:54;28.90;99.10
33837;DHT22;20140;49.356;8.812;2022-10-17T14:22:25;29.00;98.50
33837;DHT22;20140;49.356;8.812;2022-10-17T14:24:51;29.10;98.60
33837;DHT22;20140;49.356;8.812;2022-10-17T14:30:34;28.90;98.90
33837;DHT22;20140;49.356;8.812;2022-10-17T14:33:02;29.20;98.40
33837;DHT22;20140;49.356;8.812;2022-10-17T14:35:28;29.40;98.30
33837;DHT22;20140;49.356;8.812;2022-10-17T14:38:01;29.70;98.00
33837;DHT22;20140;49.356;8.812;2022-10-17T14:40:28;29.90;97.50
33837;DHT22;20140;49.356;8.812;2022-10-17T14:42:57;29.50;98.20
33837;DHT22;20140;49.356;8.812;2022-10-17T14:45:27;29.80;98.00
33837;DHT22;20140;49.356;8.812;2022-10-17T14:48:17;30.20;97.30
33837;DHT22;20140;49.356;8.812;2022-10-17T14:51:09;29.90;97.30
33837;DHT22;20140;49.356;8.812;2022-10-17T14:53:35;29.50;98.40
33837;DHT22;20140;49.356;8.812;2022-10-17T14:56:04;30.00;96.90
33837;DHT22;20140;49.356;8.812;2022-10-17T14:58:34;30.20;97.40
33837;DHT22;20140;49.356;8.812;2022-10-17T15:01:00;29.90;96.90
33837;DHT22;20140;49.356;8.812;2022-10-17T15:03:27;30.10;96.80
33837;DHT22;20140;49.356;8.812;2022-10-17T15:05:53;29.80;97.50
33837;DHT22;20140;49.356;8.812;2022-10-17T15:08:22;29.80;96.80
33837;DHT22;20140;49.356;8.812;2022-10-17T15:10:48;29.40;98.30
33837;DHT22;20140;49.356;8.812;2022-10-17T15:13:15;29.20;98.10
33837;DHT22;20140;49.356;8.812;2022-10-17T15:15:41;29.60;97.90
33837;DHT22;20140;49.356;8.812;2022-10-17T15:18:10;29.30;98.30
33837;DHT22;20140;49.356;8.812;2022-10-17T15:20:36;29.40;97.90
33837;DHT22;20140;49.356;8.812;2022-10-17T15:23:02;29.10;98.60
33837;DHT22;20140;49.356;8.812;2022-10-17T15:25:30;29.40;98.00
33837;DHT22;20140;49.356;8.812;2022-10-17T15:27:56;29.20;97.50
33837;DHT22;20140;49.356;8.812;2022-10-17T15:30:24;29.40;97.10
33837;DHT22;20140;49.356;8.812;2022-10-17T15:32:51;29.50;97.60
33837;DHT22;20140;49.356;8.812;2022-10-17T15:35:17;29.30;98.10
33837;DHT22;20140;49.356;8.812;2022-10-17T15:37:43;28.40;99.10
33837;DHT22;20140;49.356;8.812;2022-10-17T15:40:19;27.70;99.90
33837;DHT22;20140;49.356;8.812;2022-10-17T15:42:45;27.30;99.90
33837;DHT22;20140;49.356;8.812;2022-10-17T15:45:12;27.30;99.90
33837;DHT22;20140;49.356;8.812;2022-10-17T15:47:43;27.20;99.90
33837;DHT22;20140;49.356;8.812;2022-10-17T15:50:13;25.80;99.90
33837;DHT22;20140;49.356;8.812;2022-10-17T15:52:39;25.60;99.90
33837;DHT22;20140;49.356;8.812;2022-10-17T15:55:07;25.10;99.90
33837;DHT22;20140;49.356;8.812;2022-10-17T15:57:35;24.70;99.90
33837;DHT22;20140;49.356;8.812;2022-10-17T16:00:04;24.00;99.90
33837;DHT22;20140;49.356;8.812;2022-10-17T16:02:30;23.50;99.90
33837;DHT22;20140;49.356;8.812;2022-10-17T16:04:58;23.20;99.90
33837;DHT22;20140;49.356;8.812;2022-10-17T16:07:24;22.80;99.90
33837;DHT22;20140;49.356;8.812;2022-10-17T16:09:49;22.60;99.90
33837;DHT22;20140;49.356;8.812;2022-10-17T16:12:18;22.20;99.90
33837;DHT22;20140;49.356;8.812;2022-10-17T16:14:45;22.00;99.90
33837;DHT22;20140;49.356;8.812;2022-10-17T16:17:13;21.60;99.90
33837;DHT22;20140;49.356;8.812;2022-10-17T16:19:40;21.40;99.90
33837;DHT22;20140;49.356;8.812;2022-10-17T16:22:06;21.20;99.90
33837;DHT22;20140;49.356;8.812;2022-10-17T16:24:34;21.00;99.90
33837;DHT22;20140;49.356;8.812;2022-10-17T16:26:59;20.80;99.90
33837;DHT22;20140;49.356;8.812;2022-10-17T16:29:25;20.80;99.90
33837;DHT22;20140;49.356;8.812;2022-10-17T16:31:51;20.60;99.90
33837;DHT22;20140;49.356;8.812;2022-10-17T16:34:16;20.50;99.90
33837;DHT22;20140;49.356;8.812;2022-10-17T16:36:42;20.40;99.90
33837;DHT22;20140;49.356;8.812;2022-10-17T16:39:07;20.20;99.90
33837;DHT22;20140;49.356;8.812;2022-10-17T16:41:35;20.00;99.90
33837;DHT22;20140;49.356;8.812;2022-10-17T16:44:04;19.80;99.90
33837;DHT22;20140;49.356;8.812;2022-10-17T16:46:30;19.60;99.90
33837;DHT22;20140;49.356;8.812;2022-10-17T16:48:57;19.50;99.90
33837;DHT22;20140;49.356;8.812;2022-10-17T16:51:23;19.30;99.90
33837;DHT22;20140;49.356;8.812;2022-10-17T16:53:49;19.20;99.90
33837;DHT22;20140;49.356;8.812;2022-10-17T16:56:19;19.20;99.90
33837;DHT22;20140;49.356;8.812;2022-10-17T16:58:45;19.10;99.90
33837;DHT22;20140;49.356;8.812;2022-10-17T17:01:20;19.00;99.90
33837;DHT22;20140;49.356;8.812;2022-10-17T17:03:47;18.90;99.90
33837;DHT22;20140;49.356;8.812;2022-10-17T17:06:19;18.80;99.90
33837;DHT22;20140;49.356;8.812;2022-10-17T17:08:45;18.80;99.90
33837;DHT22;20140;49.356;8.812;2022-10-17T17:11:13;18.80;99.90
33837;DHT22;20140;49.356;8.812;2022-10-17T17:13:39;18.60;99.90
33837;DHT22;20140;49.356;8.812;2022-10-17T17:18:33;18.40;99.90
33837;DHT22;20140;49.356;8.812;2022-10-17T17:20:59;18.40;99.90
33837;DHT22;20140;49.356;8.812;2022-10-17T17:23:25;18.20;99.90
33837;DHT22;20140;49.356;8.812;2022-10-17T17:25:59;18.20;99.90
33837;DHT22;20140;49.356;8.812;2022-10-17T17:28:25;18.10;99.90
33837;DHT22;20140;49.356;8.812;2022-10-17T17:30:51;18.10;99.90
33837;DHT22;20140;49.356;8.812;2022-10-17T17:33:17;18.00;99.90
33837;DHT22;20140;49.356;8.812;2022-10-17T17:35:42;17.90;99.90